sensor_id;sensor_type;location;lat;lon;timestamp;P1;durP1;ratioP1;P2;durP2;ratioP2
35959;SDS011;22043;50.970;7.192;2023-05-10T00:01:16;6.95;;;3.40;;
35959;SDS011;22043;50.970;7.192;2023-05-10T00:03:41;8.43;;;3.47;;
35959;SDS011;22043;50.970;7.192;2023-05-10T00:06:07;6.70;;;3.10;;
35959;SDS011;22043;50.970;7.192;2023-05-10T00:08:32;7.72;;;3.58;;
35959;SDS011;22043;50.970;7.192;2023-05-10T00:10:57;6.55;;;2.97;;
35959;SDS011;22043;50.970;7.192;2023-05-10T00:13:23;7.65;;;3.90;;
35959;SDS011;22043;50.970;7.192;2023-05-10T00:15:48;8.18;;;3.75;;
35959;SDS011;22043;50.970;7.192;2023-05-10T00:18:14;7.70;;;3.50;;
35959;SDS011;22043;50.970;7.192;2023-05-10T00:20:39;6.20;;;3.33;;
35959;SDS011;22043;50.970;7.192;2023-05-10T00:23:04;6.40;;;3.42;;
35959;SDS011;22043;50.970;7.192;2023-05-10T00:25:30;8.18;;;4.28;;
35959;SDS011;22043;50.970;7.192;2023-05-10T00:27:55;9.55;;;3.85;;
35959;SDS011;22043;50.970;7.192;2023-05-10T00:30:22;8.45;;;3.90;;
35959;SDS011;22043;50.970;7.192;2023-05-10T00:32:47;7.32;;;3.90;;
35959;SDS011;22043;50.970;7.192;2023-05-10T00:35:14;8.05;;;4.10;;
35959;SDS011;22043;50.970;7.192;2023-05-10T00:37:40;8.32;;;3.85;;
35959;SDS011;22043;50.970;7.192;2023-05-10T00:40:06;7.72;;;4.22;;
35959;SDS011;22043;50.970;7.192;2023-05-10T00:42:32;8.32;;;4.35;;
35959;SDS011;22043;50.970;7.192;2023-05-10T00:44:57;11.40;;;4.53;;
35959;SDS011;22043;50.970;7.192;2023-05-10T00:47:23;8.52;;;4.25;;
35959;SDS011;22043;50.970;7.192;2023-05-10T00:49:48;10.32;;;4.68;;
35959;SDS011;22043;50.970;7.192;2023-05-10T00:52:14;9.13;;;4.47;;
35959;SDS011;22043;50.970;7.192;2023-05-10T00:54:40;9.70;;;4.97;;
35959;SDS011;22043;50.970;7.192;2023-05-10T00:57:06;9.88;;;4.40;;
35959;SDS011;22043;50.970;7.192;2023-05-10T00:59:31;10.82;;;5.50;;
35959;SDS011;22043;50.970;7.192;2023-05-10T01:01:57;11.00;;;4.80;;
35959;SDS011;22043;50.970;7.192;2023-05-10T01:04:23;10.25;;;4.88;;
35959;SDS011;22043;50.970;7.192;2023-05-10T01:06:51;8.98;;;3.88;;
35959;SDS011;22043;50.970;7.192;2023-05-10T01:09:17;8.25;;;4.65;;
35959;SDS011;22043;50.970;7.192;2023-05-10T01:11:44;8.90;;;4.32;;
35959;SDS011;22043;50.970;7.192;2023-05-10T01:14:09;11.55;;;4.85;;
35959;SDS011;22043;50.970;7.192;2023-05-10T01:16:37;9.55;;;4.57;;
35959;SDS011;22043;50.970;7.192;2023-05-10T01:19:26;8.77;;;4.68;;
35959;SDS011;22043;50.970;7.192;2023-05-10T01:33:09;11.70;;;4.90;;
35959;SDS011;22043;50.970;7.192;2023-05-10T01:35:47;10.90;;;5.00;;
35959;SDS011;22043;50.970;7.192;2023-05-10T01:43:51;10.88;;;5.68;;
35959;SDS011;22043;50.970;7.192;2023-05-10T01:46:24;11.57;;;5.03;;
35959;SDS011;22043;50.970;7.192;2023-05-10T01:48:57;11.80;;;4.57;;
35959;SDS011;22043;50.970;7.192;2023-05-10T01:51:26;11.65;;;4.75;;
35959;SDS011;22043;50.970;7.192;2023-05-10T01:53:57;11.85;;;5.25;;
35959;SDS011;22043;50.970;7.192;2023-05-10T01:56:26;11.82;;;5.40;;
35959;SDS011;22043;50.970;7.192;2023-05-10T01:58:55;12.27;;;5.90;;
35959;SDS011;22043;50.970;7.192;2023-05-10T02:01:21;11.10;;;5.05;;
35959;SDS011;22043;50.970;7.192;2023-05-10T02:03:47;12.82;;;5.43;;
35959;SDS011;22043;50.970;7.192;2023-05-10T02:08:43;12.18;;;5.82;;
35959;SDS011;22043;50.970;7.192;2023-05-10T02:11:11;11.02;;;4.82;;
35959;SDS011;22043;50.970;7.192;2023-05-10T02:13:38;11.10;;;5.20;;
35959;SDS011;22043;50.970;7.192;2023-05-10T02:16:05;8.63;;;3.25;;
35959;SDS011;22043;50.970;7.192;2023-05-10T02:18:31;6.35;;;2.83;;
35959;SDS011;22043;50.970;7.192;2023-05-10T02:20:58;5.10;;;2.60;;
35959;SDS011;22043;50.970;7.192;2023-05-10T02:23:26;4.18;;;1.92;;
35959;SDS011;22043;50.970;7.192;2023-05-10T02:25:53;3.55;;;1.58;;
35959;SDS011;22043;50.970;7.192;2023-05-10T02:28:20;5.78;;;1.98;;
35959;SDS011;22043;50.970;7.192;2023-05-10T02:30:47;5.80;;;2.50;;
35959;SDS011;22043;50.970;7.192;2023-05-10T02:33:12;6.70;;;1.90;;
35959;SDS011;22043;50.970;7.192;2023-05-10T02:35:38;6.50;;;2.55;;
35959;SDS011;22043;50.970;7.192;2023-05-10T02:38:04;8.90;;;4.20;;
35959;SDS011;22043;50.970;7.192;2023-05-10T02:40:31;8.93;;;4.97;;
35959;SDS011;22043;50.970;7.192;2023-05-10T02:42:58;9.45;;;3.92;;
35959;SDS011;22043;50.970;7.192;2023-05-10T02:47:54;12.30;;;4.75;;
35959;SDS011;22043;50.970;7.192;2023-05-10T02:50:20;8.57;;;4.80;;
35959;SDS011;22043;50.970;7.192;2023-05-10T02:52:50;11.50;;;6.05;;
35959;SDS011;22043;50.970;7.192;2023-05-10T02:55:21;10.95;;;4.97;;
35959;SDS011;22043;50.970;7.192;2023-05-10T02:57:57;10.52;;;5.22;;
35959;SDS011;22043;50.970;7.192;2023-05-10T03:00:25;10.85;;;4.82;;
35959;SDS011;22043;50.970;7.192;2023-05-10T03:02:50;10.73;;;5.53;;
35959;SDS011;22043;50.970;7.192;2023-05-10T03:05:16;9.90;;;4.70;;
35959;SDS011;22043;50.970;7.192;2023-05-10T03:07:42;9.52;;;5.15;;
35959;SDS011;22043;50.970;7.192;2023-05-10T03:10:08;8.57;;;4.50;;
35959;SDS011;22043;50.970;7.192;2023-05-10T03:15:47;7.18;;;3.55;;
35959;SDS011;22043;50.970;7.192;2023-05-10T03:18:26;8.32;;;3.72;;
35959;SDS011;22043;50.970;7.192;2023-05-10T03:20:58;6.35;;;2.92;;
35959;SDS011;22043;50.970;7.192;2023-05-10T03:23:27;6.45;;;3.25;;
35959;SDS011;22043;50.970;7.192;2023-05-10T03:25:59;6.35;;;2.95;;
35959;SDS011;22043;50.970;7.192;2023-05-10T03:28:26;6.90;;;3.35;;
35959;SDS011;22043;50.970;7.192;2023-05-10T03:30:53;8.32;;;3.80;;
35959;SDS011;22043;50.970;7.192;2023-05-10T03:33:19;6.50;;;3.65;;
35959;SDS011;22043;50.970;7.192;2023-05-10T03:35:46;7.90;;;3.70;;
35959;SDS011;22043;50.970;7.192;2023-05-10T03:38:12;6.13;;;3.45;;
35959;SDS011;22043;50.970;7.192;2023-05-10T03:40:38;7.55;;;4.03;;
35959;SDS011;22043;50.970;7.192;2023-05-10T03:43:04;8.13;;;3.60;;
35959;SDS011;22043;50.970;7.192;2023-05-10T03:45:30;7.47;;;3.60;;
35959;SDS011;22043;50.970;7.192;2023-05-10T03:47:56;7.57;;;4.28;;
35959;SDS011;22043;50.970;7.192;2023-05-10T03:50:23;10.68;;;4.78;;
35959;SDS011;22043;50.970;7.192;2023-05-10T03:52:49;10.40;;;4.50;;
35959;SDS011;22043;50.970;7.192;2023-05-10T03:55:14;9.68;;;4.97;;
35959;SDS011;22043;50.970;7.192;2023-05-10T03:57:41;11.70;;;5.47;;
35959;SDS011;22043;50.970;7.192;2023-05-10T04:00:06;12.52;;;5.93;;
35959;SDS011;22043;50.970;7.192;2023-05-10T04:02:39;13.32;;;6.53;;
35959;SDS011;22043;50.970;7.192;2023-05-10T04:05:06;16.42;;;6.65;;
35959;SDS011;22043;50.970;7.192;2023-05-10T04:07:32;15.90;;;7.00;;
35959;SDS011;22043;50.970;7.192;2023-05-10T04:09:58;14.02;;;6.72;;
35959;SDS011;22043;50.970;7.192;2023-05-10T04:12:23;19.17;;;7.25;;
35959;SDS011;22043;50.970;7.192;2023-05-10T04:14:49;12.75;;;6.55;;
35959;SDS011;22043;50.970;7.192;2023-05-10T04:17:14;15.07;;;7.25;;
35959;SDS011;22043;50.970;7.192;2023-05-10T04:19:40;15.25;;;6.88;;
35959;SDS011;22043;50.970;7.192;2023-05-10T04:22:05;14.15;;;6.45;;
35959;SDS011;22043;50.970;7.192;2023-05-10T04:24:30;13.00;;;6.60;;
35959;SDS011;22043;50.970;7.192;2023-05-10T04:26:56;12.27;;;5.97;;
35959;SDS011;22043;50.970;7.192;2023-05-10T04:29:21;13.18;;;6.40;;
35959;SDS011;22043;50.970;7.192;2023-05-10T04:31:46;11.52;;;5.47;;
35959;SDS011;22043;50.970;7.192;2023-05-10T04:34:12;13.07;;;5.78;;
35959;SDS011;22043;50.970;7.192;2023-05-10T04:36:37;12.93;;;6.30;;
35959;SDS011;22043;50.970;7.192;2023-05-10T04:39:03;12.75;;;5.55;;
35959;SDS011;22043;50.970;7.192;2023-05-10T04:41:29;10.43;;;5.32;;
35959;SDS011;22043;50.970;7.192;2023-05-10T04:43:54;15.77;;;5.80;;
35959;SDS011;22043;50.970;7.192;2023-05-10T04:46:20;12.82;;;6.13;;
35959;SDS011;22043;50.970;7.192;2023-05-10T04:48:45;11.40;;;5.63;;
35959;SDS011;22043;50.970;7.192;2023-05-10T04:51:11;11.50;;;6.13;;
35959;SDS011;22043;50.970;7.192;2023-05-10T04:53:43;11.15;;;5.18;;
35959;SDS011;22043;50.970;7.192;2023-05-10T04:56:15;11.82;;;6.00;;
35959;SDS011;22043;50.970;7.192;2023-05-10T04:58:41;14.23;;;6.05;;
35959;SDS011;22043;50.970;7.192;2023-05-10T05:01:07;11.77;;;4.85;;
35959;SDS011;22043;50.970;7.192;2023-05-10T05:03:33;9.82;;;4.25;;
35959;SDS011;22043;50.970;7.192;2023-05-10T05:05:59;7.25;;;3.65;;
35959;SDS011;22043;50.970;7.192;2023-05-10T05:08:24;6.03;;;2.97;;
35959;SDS011;22043;50.970;7.192;2023-05-10T05:10:50;9.57;;;2.47;;
35959;SDS011;22043;50.970;7.192;2023-05-10T05:13:15;5.97;;;1.80;;
35959;SDS011;22043;50.970;7.192;2023-05-10T05:15:41;3.80;;;1.77;;
35959;SDS011;22043;50.970;7.192;2023-05-10T05:18:06;3.00;;;1.42;;
35959;SDS011;22043;50.970;7.192;2023-05-10T05:20:32;4.18;;;1.42;;
35959;SDS011;22043;50.970;7.192;2023-05-10T05:22:59;6.50;;;2.17;;
35959;SDS011;22043;50.970;7.192;2023-05-10T05:25:24;8.73;;;3.47;;
35959;SDS011;22043;50.970;7.192;2023-05-10T05:27:50;9.57;;;4.47;;
35959;SDS011;22043;50.970;7.192;2023-05-10T05:30:15;15.77;;;6.70;;
35959;SDS011;22043;50.970;7.192;2023-05-10T05:32:41;13.98;;;5.93;;
35959;SDS011;22043;50.970;7.192;2023-05-10T05:35:06;15.15;;;6.82;;
35959;SDS011;22043;50.970;7.192;2023-05-10T05:37:32;13.52;;;6.72;;
35959;SDS011;22043;50.970;7.192;2023-05-10T05:39:57;14.88;;;6.88;;
35959;SDS011;22043;50.970;7.192;2023-05-10T05:42:23;15.13;;;6.82;;
35959;SDS011;22043;50.970;7.192;2023-05-10T05:44:48;15.73;;;7.15;;
35959;SDS011;22043;50.970;7.192;2023-05-10T05:47:16;18.98;;;7.57;;
35959;SDS011;22043;50.970;7.192;2023-05-10T05:49:42;16.60;;;6.63;;
35959;SDS011;22043;50.970;7.192;2023-05-10T05:52:10;18.38;;;7.13;;
35959;SDS011;22043;50.970;7.192;2023-05-10T05:54:36;15.85;;;6.65;;
35959;SDS011;22043;50.970;7.192;2023-05-10T05:57:02;15.35;;;7.28;;
35959;SDS011;22043;50.970;7.192;2023-05-10T05:59:27;14.20;;;6.05;;
35959;SDS011;22043;50.970;7.192;2023-05-10T06:01:53;12.80;;;6.15;;
35959;SDS011;22043;50.970;7.192;2023-05-10T06:04:19;11.98;;;5.68;;
35959;SDS011;22043;50.970;7.192;2023-05-10T06:06:45;18.35;;;6.97;;
35959;SDS011;22043;50.970;7.192;2023-05-10T06:09:11;15.52;;;7.03;;
35959;SDS011;22043;50.970;7.192;2023-05-10T06:11:37;15.55;;;6.68;;
35959;SDS011;22043;50.970;7.192;2023-05-10T06:14:03;11.80;;;5.90;;
35959;SDS011;22043;50.970;7.192;2023-05-10T06:16:30;15.90;;;6.28;;
35959;SDS011;22043;50.970;7.192;2023-05-10T06:18:55;12.80;;;6.47;;
35959;SDS011;22043;50.970;7.192;2023-05-10T06:21:21;17.35;;;7.40;;
35959;SDS011;22043;50.970;7.192;2023-05-10T06:23:47;15.73;;;5.82;;
35959;SDS011;22043;50.970;7.192;2023-05-10T06:26:12;15.80;;;7.00;;
35959;SDS011;22043;50.970;7.192;2023-05-10T06:28:39;15.55;;;6.75;;
35959;SDS011;22043;50.970;7.192;2023-05-10T06:31:05;12.25;;;6.18;;
35959;SDS011;22043;50.970;7.192;2023-05-10T06:33:31;14.75;;;6.43;;
35959;SDS011;22043;50.970;7.192;2023-05-10T06:35:56;19.05;;;5.57;;
35959;SDS011;22043;50.970;7.192;2023-05-10T06:38:33;15.88;;;6.22;;
35959;SDS011;22043;50.970;7.192;2023-05-10T06:41:18;13.40;;;6.25;;
35959;SDS011;22043;50.970;7.192;2023-05-10T06:43:43;15.32;;;7.13;;
35959;SDS011;22043;50.970;7.192;2023-05-10T06:46:09;13.98;;;6.45;;
35959;SDS011;22043;50.970;7.192;2023-05-10T06:48:35;16.80;;;5.95;;
35959;SDS011;22043;50.970;7.192;2023-05-10T06:51:00;14.13;;;6.10;;
35959;SDS011;22043;50.970;7.192;2023-05-10T06:53:26;18.58;;;6.32;;
35959;SDS011;22043;50.970;7.192;2023-05-10T06:55:51;11.07;;;5.60;;
35959;SDS011;22043;50.970;7.192;2023-05-10T06:58:17;14.38;;;6.35;;
35959;SDS011;22043;50.970;7.192;2023-05-10T07:00:42;13.70;;;5.32;;
35959;SDS011;22043;50.970;7.192;2023-05-10T07:03:09;12.93;;;5.97;;
35959;SDS011;22043;50.970;7.192;2023-05-10T07:16:17;14.43;;;5.70;;
35959;SDS011;22043;50.970;7.192;2023-05-10T07:18:43;15.35;;;6.60;;
35959;SDS011;22043;50.970;7.192;2023-05-10T07:21:08;14.90;;;6.45;;
35959;SDS011;22043;50.970;7.192;2023-05-10T07:23:34;14.40;;;5.97;;
35959;SDS011;22043;50.970;7.192;2023-05-10T07:25:59;14.93;;;5.97;;
35959;SDS011;22043;50.970;7.192;2023-05-10T07:28:25;19.20;;;6.63;;
35959;SDS011;22043;50.970;7.192;2023-05-10T07:30:50;17.08;;;6.68;;
35959;SDS011;22043;50.970;7.192;2023-05-10T07:33:16;18.52;;;7.47;;
35959;SDS011;22043;50.970;7.192;2023-05-10T07:35:42;12.60;;;5.68;;
35959;SDS011;22043;50.970;7.192;2023-05-10T07:38:08;15.35;;;6.53;;
35959;SDS011;22043;50.970;7.192;2023-05-10T07:40:33;14.05;;;5.40;;
35959;SDS011;22043;50.970;7.192;2023-05-10T07:42:59;15.52;;;7.10;;
35959;SDS011;22043;50.970;7.192;2023-05-10T07:45:26;15.68;;;5.93;;
35959;SDS011;22043;50.970;7.192;2023-05-10T07:47:52;11.80;;;5.72;;
35959;SDS011;22043;50.970;7.192;2023-05-10T07:50:17;13.48;;;5.70;;
35959;SDS011;22043;50.970;7.192;2023-05-10T07:52:43;16.30;;;6.43;;
35959;SDS011;22043;50.970;7.192;2023-05-10T07:55:09;17.25;;;7.10;;
35959;SDS011;22043;50.970;7.192;2023-05-10T07:57:35;14.88;;;6.70;;
35959;SDS011;22043;50.970;7.192;2023-05-10T08:00:00;11.20;;;5.93;;
35959;SDS011;22043;50.970;7.192;2023-05-10T08:02:26;14.85;;;5.68;;
35959;SDS011;22043;50.970;7.192;2023-05-10T08:04:51;16.02;;;6.15;;
35959;SDS011;22043;50.970;7.192;2023-05-10T08:07:17;14.27;;;5.35;;
35959;SDS011;22043;50.970;7.192;2023-05-10T08:09:43;13.52;;;5.28;;
35959;SDS011;22043;50.970;7.192;2023-05-10T08:12:08;15.60;;;5.20;;
35959;SDS011;22043;50.970;7.192;2023-05-10T08:14:34;10.77;;;5.13;;
35959;SDS011;22043;50.970;7.192;2023-05-10T08:17:02;20.40;;;6.10;;
35959;SDS011;22043;50.970;7.192;2023-05-10T08:19:28;13.07;;;5.13;;
35959;SDS011;22043;50.970;7.192;2023-05-10T08:21:53;16.42;;;5.60;;
35959;SDS011;22043;50.970;7.192;2023-05-10T08:24:20;13.68;;;5.85;;
35959;SDS011;22043;50.970;7.192;2023-05-10T08:26:46;14.52;;;5.32;;
35959;SDS011;22043;50.970;7.192;2023-05-10T08:29:13;15.25;;;5.82;;
35959;SDS011;22043;50.970;7.192;2023-05-10T08:31:38;14.48;;;6.00;;
35959;SDS011;22043;50.970;7.192;2023-05-10T08:34:04;13.55;;;5.60;;
35959;SDS011;22043;50.970;7.192;2023-05-10T08:36:29;13.00;;;5.82;;
35959;SDS011;22043;50.970;7.192;2023-05-10T08:38:55;12.25;;;6.00;;
35959;SDS011;22043;50.970;7.192;2023-05-10T08:41:21;13.25;;;5.80;;
35959;SDS011;22043;50.970;7.192;2023-05-10T08:43:49;17.80;;;6.10;;
35959;SDS011;22043;50.970;7.192;2023-05-10T08:46:16;14.95;;;5.10;;
35959;SDS011;22043;50.970;7.192;2023-05-10T08:48:44;9.52;;;4.55;;
35959;SDS011;22043;50.970;7.192;2023-05-10T08:51:12;12.23;;;5.25;;
35959;SDS011;22043;50.970;7.192;2023-05-10T08:53:42;9.65;;;3.80;;
35959;SDS011;22043;50.970;7.192;2023-05-10T08:56:09;11.52;;;4.47;;
35959;SDS011;22043;50.970;7.192;2023-05-10T08:58:35;8.35;;;4.07;;
35959;SDS011;22043;50.970;7.192;2023-05-10T09:01:03;7.20;;;3.70;;
35959;SDS011;22043;50.970;7.192;2023-05-10T09:03:29;8.88;;;3.35;;
35959;SDS011;22043;50.970;7.192;2023-05-10T09:05:55;8.23;;;3.25;;
35959;SDS011;22043;50.970;7.192;2023-05-10T09:08:24;8.50;;;3.63;;
35959;SDS011;22043;50.970;7.192;2023-05-10T09:10:56;5.70;;;3.08;;
35959;SDS011;22043;50.970;7.192;2023-05-10T09:13:22;7.10;;;3.00;;
35959;SDS011;22043;50.970;7.192;2023-05-10T09:15:48;6.78;;;3.17;;
35959;SDS011;22043;50.970;7.192;2023-05-10T09:18:14;5.60;;;2.63;;
35959;SDS011;22043;50.970;7.192;2023-05-10T09:20:40;9.85;;;3.35;;
35959;SDS011;22043;50.970;7.192;2023-05-10T09:23:06;5.60;;;2.92;;
35959;SDS011;22043;50.970;7.192;2023-05-10T09:25:46;7.35;;;3.10;;
35959;SDS011;22043;50.970;7.192;2023-05-10T09:31:16;6.13;;;3.30;;
35959;SDS011;22043;50.970;7.192;2023-05-10T09:33:45;7.13;;;3.28;;
35959;SDS011;22043;50.970;7.192;2023-05-10T09:36:12;6.18;;;3.03;;
35959;SDS011;22043;50.970;7.192;2023-05-10T09:38:57;7.72;;;3.50;;
35959;SDS011;22043;50.970;7.192;2023-05-10T09:41:23;9.43;;;4.22;;
35959;SDS011;22043;50.970;7.192;2023-05-10T09:43:56;12.55;;;4.93;;
35959;SDS011;22043;50.970;7.192;2023-05-10T09:46:32;9.30;;;4.82;;
35959;SDS011;22043;50.970;7.192;2023-05-10T09:49:23;11.07;;;4.35;;
35959;SDS011;22043;50.970;7.192;2023-05-10T09:52:12;9.02;;;4.00;;
35959;SDS011;22043;50.970;7.192;2023-05-10T09:54:57;12.68;;;4.82;;
35959;SDS011;22043;50.970;7.192;2023-05-10T09:58:06;10.88;;;4.35;;
35959;SDS011;22043;50.970;7.192;2023-05-10T10:00:58;12.25;;;5.57;;
35959;SDS011;22043;50.970;7.192;2023-05-10T10:03:59;10.82;;;5.22;;
35959;SDS011;22043;50.970;7.192;2023-05-10T10:06:43;13.00;;;5.55;;
35959;SDS011;22043;50.970;7.192;2023-05-10T10:09:14;13.52;;;6.35;;
35959;SDS011;22043;50.970;7.192;2023-05-10T10:11:40;16.98;;;6.13;;
35959;SDS011;22043;50.970;7.192;2023-05-10T10:14:11;11.98;;;5.75;;
35959;SDS011;22043;50.970;7.192;2023-05-10T10:16:38;18.80;;;6.95;;
35959;SDS011;22043;50.970;7.192;2023-05-10T10:21:32;20.92;;;7.32;;
35959;SDS011;22043;50.970;7.192;2023-05-10T10:23:58;16.77;;;6.93;;
35959;SDS011;22043;50.970;7.192;2023-05-10T10:26:26;21.17;;;7.68;;
35959;SDS011;22043;50.970;7.192;2023-05-10T10:31:40;16.08;;;6.97;;
35959;SDS011;22043;50.970;7.192;2023-05-10T10:34:10;20.05;;;8.77;;
35959;SDS011;22043;50.970;7.192;2023-05-10T10:36:53;19.10;;;7.40;;
35959;SDS011;22043;50.970;7.192;2023-05-10T10:39:23;15.57;;;6.43;;
35959;SDS011;22043;50.970;7.192;2023-05-10T10:41:53;18.95;;;7.70;;
35959;SDS011;22043;50.970;7.192;2023-05-10T10:52:34;14.93;;;5.97;;
35959;SDS011;22043;50.970;7.192;2023-05-10T10:55:18;19.17;;;7.00;;
35959;SDS011;22043;50.970;7.192;2023-05-10T11:00:24;15.55;;;6.90;;
35959;SDS011;22043;50.970;7.192;2023-05-10T11:03:05;13.25;;;6.05;;
35959;SDS011;22043;50.970;7.192;2023-05-10T11:05:47;15.73;;;6.10;;
35959;SDS011;22043;50.970;7.192;2023-05-10T11:10:51;16.05;;;6.93;;
35959;SDS011;22043;50.970;7.192;2023-05-10T11:13:26;17.35;;;7.10;;
35959;SDS011;22043;50.970;7.192;2023-05-10T11:18:28;13.52;;;5.55;;
35959;SDS011;22043;50.970;7.192;2023-05-10T11:20:58;14.98;;;6.50;;
35959;SDS011;22043;50.970;7.192;2023-05-10T11:26:08;14.85;;;6.18;;
35959;SDS011;22043;50.970;7.192;2023-05-10T11:28:44;12.07;;;5.90;;
35959;SDS011;22043;50.970;7.192;2023-05-10T11:31:16;11.73;;;5.07;;
35959;SDS011;22043;50.970;7.192;2023-05-10T11:33:43;12.52;;;4.70;;
35959;SDS011;22043;50.970;7.192;2023-05-10T11:41:17;9.85;;;4.43;;
35959;SDS011;22043;50.970;7.192;2023-05-10T11:43:46;10.45;;;4.28;;
35959;SDS011;22043;50.970;7.192;2023-05-10T11:46:14;10.82;;;4.70;;
35959;SDS011;22043;50.970;7.192;2023-05-10T11:48:40;8.38;;;4.40;;
35959;SDS011;22043;50.970;7.192;2023-05-10T11:51:10;10.88;;;5.28;;
35959;SDS011;22043;50.970;7.192;2023-05-10T11:53:36;10.25;;;4.25;;
35959;SDS011;22043;50.970;7.192;2023-05-10T11:56:09;11.25;;;4.50;;
35959;SDS011;22043;50.970;7.192;2023-05-10T11:58:36;13.10;;;4.78;;
35959;SDS011;22043;50.970;7.192;2023-05-10T12:01:03;8.15;;;4.35;;
35959;SDS011;22043;50.970;7.192;2023-05-10T12:03:31;9.20;;;3.78;;
35959;SDS011;22043;50.970;7.192;2023-05-10T12:05:58;7.90;;;3.75;;
35959;SDS011;22043;50.970;7.192;2023-05-10T12:08:25;10.45;;;4.63;;
35959;SDS011;22043;50.970;7.192;2023-05-10T12:10:52;10.23;;;3.70;;
35959;SDS011;22043;50.970;7.192;2023-05-10T12:13:19;8.43;;;4.63;;
35959;SDS011;22043;50.970;7.192;2023-05-10T12:15:46;9.77;;;4.32;;
35959;SDS011;22043;50.970;7.192;2023-05-10T12:18:12;8.55;;;4.00;;
35959;SDS011;22043;50.970;7.192;2023-05-10T12:20:39;6.80;;;3.72;;
35959;SDS011;22043;50.970;7.192;2023-05-10T12:23:07;9.55;;;4.07;;
35959;SDS011;22043;50.970;7.192;2023-05-10T12:25:38;10.63;;;3.53;;
35959;SDS011;22043;50.970;7.192;2023-05-10T12:28:05;8.95;;;3.38;;
35959;SDS011;22043;50.970;7.192;2023-05-10T12:30:33;7.35;;;3.70;;
35959;SDS011;22043;50.970;7.192;2023-05-10T12:33:13;7.13;;;3.67;;
35959;SDS011;22043;50.970;7.192;2023-05-10T12:35:44;6.40;;;3.33;;
35959;SDS011;22043;50.970;7.192;2023-05-10T12:38:29;7.93;;;3.38;;
35959;SDS011;22043;50.970;7.192;2023-05-10T12:41:15;6.40;;;3.35;;
35959;SDS011;22043;50.970;7.192;2023-05-10T12:43:41;6.03;;;2.50;;
35959;SDS011;22043;50.970;7.192;2023-05-10T12:46:14;5.53;;;2.78;;
35959;SDS011;22043;50.970;7.192;2023-05-10T12:48:41;5.57;;;2.88;;
35959;SDS011;22043;50.970;7.192;2023-05-10T12:51:08;5.03;;;2.13;;
35959;SDS011;22043;50.970;7.192;2023-05-10T12:53:37;5.60;;;2.40;;
35959;SDS011;22043;50.970;7.192;2023-05-10T12:56:03;5.78;;;2.58;;
35959;SDS011;22043;50.970;7.192;2023-05-10T12:58:28;3.92;;;2.00;;
35959;SDS011;22043;50.970;7.192;2023-05-10T13:00:54;3.22;;;1.52;;
35959;SDS011;22043;50.970;7.192;2023-05-10T13:03:21;5.75;;;2.38;;
35959;SDS011;22043;50.970;7.192;2023-05-10T13:05:47;4.68;;;1.98;;
35959;SDS011;22043;50.970;7.192;2023-05-10T13:08:12;2.80;;;1.60;;
35959;SDS011;22043;50.970;7.192;2023-05-10T13:10:38;4.68;;;1.63;;
35959;SDS011;22043;50.970;7.192;2023-05-10T13:13:04;2.63;;;1.30;;
35959;SDS011;22043;50.970;7.192;2023-05-10T13:15:30;4.65;;;1.63;;
35959;SDS011;22043;50.970;7.192;2023-05-10T13:17:55;3.40;;;1.60;;
35959;SDS011;22043;50.970;7.192;2023-05-10T13:20:21;3.65;;;1.98;;
35959;SDS011;22043;50.970;7.192;2023-05-10T13:22:47;2.13;;;1.08;;
35959;SDS011;22043;50.970;7.192;2023-05-10T13:25:12;3.47;;;1.40;;
35959;SDS011;22043;50.970;7.192;2023-05-10T13:27:38;3.63;;;1.70;;
35959;SDS011;22043;50.970;7.192;2023-05-10T13:30:05;2.50;;;1.42;;
35959;SDS011;22043;50.970;7.192;2023-05-10T13:32:31;3.00;;;1.70;;
35959;SDS011;22043;50.970;7.192;2023-05-10T13:34:58;2.58;;;1.40;;
35959;SDS011;22043;50.970;7.192;2023-05-10T13:37:23;3.70;;;1.80;;
35959;SDS011;22043;50.970;7.192;2023-05-10T13:39:49;2.38;;;1.38;;
35959;SDS011;22043;50.970;7.192;2023-05-10T13:42:14;3.00;;;1.30;;
35959;SDS011;22043;50.970;7.192;2023-05-10T13:44:40;1.90;;;1.00;;
35959;SDS011;22043;50.970;7.192;2023-05-10T13:47:06;3.30;;;1.60;;
35959;SDS011;22043;50.970;7.192;2023-05-10T13:49:31;2.90;;;1.42;;
35959;SDS011;22043;50.970;7.192;2023-05-10T13:51:57;2.28;;;1.30;;
35959;SDS011;22043;50.970;7.192;2023-05-10T13:54:23;2.97;;;1.17;;
35959;SDS011;22043;50.970;7.192;2023-05-10T13:56:48;2.38;;;1.23;;
35959;SDS011;22043;50.970;7.192;2023-05-10T13:59:14;3.70;;;1.33;;
35959;SDS011;22043;50.970;7.192;2023-05-10T14:01:40;2.35;;;1.08;;
35959;SDS011;22043;50.970;7.192;2023-05-10T14:04:06;2.92;;;1.40;;
35959;SDS011;22043;50.970;7.192;2023-05-10T14:06:35;2.35;;;0.80;;
35959;SDS011;22043;50.970;7.192;2023-05-10T14:09:01;2.05;;;1.27;;
35959;SDS011;22043;50.970;7.192;2023-05-10T14:11:27;2.88;;;0.98;;
35959;SDS011;22043;50.970;7.192;2023-05-10T14:13:53;2.90;;;1.15;;
35959;SDS011;22043;50.970;7.192;2023-05-10T14:16:19;2.20;;;0.82;;
35959;SDS011;22043;50.970;7.192;2023-05-10T14:18:45;2.40;;;0.80;;
35959;SDS011;22043;50.970;7.192;2023-05-10T14:21:11;2.28;;;0.93;;
35959;SDS011;22043;50.970;7.192;2023-05-10T14:23:37;2.60;;;1.00;;
35959;SDS011;22043;50.970;7.192;2023-05-10T14:26:03;2.10;;;0.70;;
35959;SDS011;22043;50.970;7.192;2023-05-10T14:28:29;1.40;;;0.70;;
35959;SDS011;22043;50.970;7.192;2023-05-10T14:30:55;1.38;;;0.65;;
35959;SDS011;22043;50.970;7.192;2023-05-10T14:33:21;1.20;;;0.50;;
35959;SDS011;22043;50.970;7.192;2023-05-10T14:35:47;1.45;;;0.70;;
35959;SDS011;22043;50.970;7.192;2023-05-10T14:38:13;1.60;;;0.77;;
35959;SDS011;22043;50.970;7.192;2023-05-10T14:40:39;2.65;;;0.90;;
35959;SDS011;22043;50.970;7.192;2023-05-10T14:43:05;4.53;;;2.22;;
35959;SDS011;22043;50.970;7.192;2023-05-10T14:45:31;6.25;;;3.45;;
35959;SDS011;22043;50.970;7.192;2023-05-10T14:47:56;5.78;;;2.78;;
35959;SDS011;22043;50.970;7.192;2023-05-10T14:50:22;4.88;;;2.50;;
35959;SDS011;22043;50.970;7.192;2023-05-10T14:52:48;7.47;;;3.13;;
35959;SDS011;22043;50.970;7.192;2023-05-10T14:55:14;7.88;;;3.00;;
35959;SDS011;22043;50.970;7.192;2023-05-10T14:57:40;5.78;;;2.40;;
35959;SDS011;22043;50.970;7.192;2023-05-10T15:00:06;6.80;;;2.70;;
35959;SDS011;22043;50.970;7.192;2023-05-10T15:02:32;4.90;;;2.58;;
35959;SDS011;22043;50.970;7.192;2023-05-10T15:04:58;9.05;;;2.67;;
35959;SDS011;22043;50.970;7.192;2023-05-10T15:07:24;5.88;;;2.60;;
35959;SDS011;22043;50.970;7.192;2023-05-10T15:09:52;5.22;;;2.60;;
35959;SDS011;22043;50.970;7.192;2023-05-10T15:12:19;5.88;;;2.75;;
35959;SDS011;22043;50.970;7.192;2023-05-10T15:14:47;5.70;;;2.70;;
35959;SDS011;22043;50.970;7.192;2023-05-10T15:17:13;7.22;;;3.55;;
35959;SDS011;22043;50.970;7.192;2023-05-10T15:19:39;6.68;;;2.63;;
35959;SDS011;22043;50.970;7.192;2023-05-10T15:22:05;6.55;;;3.55;;
35959;SDS011;22043;50.970;7.192;2023-05-10T15:24:31;5.13;;;2.45;;
35959;SDS011;22043;50.970;7.192;2023-05-10T15:26:58;8.63;;;2.97;;
35959;SDS011;22043;50.970;7.192;2023-05-10T15:29:24;6.10;;;3.28;;
35959;SDS011;22043;50.970;7.192;2023-05-10T15:31:50;6.00;;;2.83;;
35959;SDS011;22043;50.970;7.192;2023-05-10T15:34:20;7.70;;;3.13;;
35959;SDS011;22043;50.970;7.192;2023-05-10T15:36:49;5.40;;;2.90;;
35959;SDS011;22043;50.970;7.192;2023-05-10T15:39:15;7.82;;;3.60;;
35959;SDS011;22043;50.970;7.192;2023-05-10T15:41:41;13.73;;;3.47;;
35959;SDS011;22043;50.970;7.192;2023-05-10T15:44:07;7.68;;;3.83;;
35959;SDS011;22043;50.970;7.192;2023-05-10T15:46:34;8.90;;;3.67;;
35959;SDS011;22043;50.970;7.192;2023-05-10T15:49:00;7.75;;;3.17;;
35959;SDS011;22043;50.970;7.192;2023-05-10T15:51:26;9.20;;;3.65;;